sensor_id;sensor_type;location;lat;lon;timestamp;P1;durP1;ratioP1;P2;durP2;ratioP2
58784;SDS011;44557;51.862;19.378;2023-01-15T00:00:20;9.50;;;4.80;;
58784;SDS011;44557;51.862;19.378;2023-01-15T00:02:42;12.40;;;5.60;;
58784;SDS011;44557;51.862;19.378;2023-01-15T00:04:43;12.50;;;5.30;;
58784;SDS011;44557;51.862;19.378;2023-01-15T00:06:45;11.00;;;5.30;;
58784;SDS011;44557;51.862;19.378;2023-01-15T00:08:46;11.40;;;4.70;;
58784;SDS011;44557;51.862;19.378;2023-01-15T00:10:48;10.60;;;4.40;;
58784;SDS011;44557;51.862;19.378;2023-01-15T00:12:49;10.80;;;5.30;;
58784;SDS011;44557;51.862;19.378;2023-01-15T00:14:51;11.20;;;5.30;;
58784;SDS011;44557;51.862;19.378;2023-01-15T00:16:53;10.90;;;4.80;;
58784;SDS011;44557;51.862;19.378;2023-01-15T00:18:58;13.00;;;5.60;;
58784;SDS011;44557;51.862;19.378;2023-01-15T00:21:01;14.30;;;4.80;;
58784;SDS011;44557;51.862;19.378;2023-01-15T00:23:05;12.30;;;5.60;;
58784;SDS011;44557;51.862;19.378;2023-01-15T00:25:08;9.80;;;4.80;;
58784;SDS011;44557;51.862;19.378;2023-01-15T00:27:29;9.60;;;4.80;;
58784;SDS011;44557;51.862;19.378;2023-01-15T00:29:40;13.30;;;5.40;;
58784;SDS011;44557;51.862;19.378;2023-01-15T00:31:42;10.20;;;4.60;;
58784;SDS011;44557;51.862;19.378;2023-01-15T00:33:51;9.80;;;4.10;;
58784;SDS011;44557;51.862;19.378;2023-01-15T00:35:52;12.00;;;4.10;;
58784;SDS011;44557;51.862;19.378;2023-01-15T00:37:54;10.50;;;5.10;;
58784;SDS011;44557;51.862;19.378;2023-01-15T00:39:55;9.10;;;4.00;;
58784;SDS011;44557;51.862;19.378;2023-01-15T00:41:57;9.10;;;4.70;;
58784;SDS011;44557;51.862;19.378;2023-01-15T00:43:58;11.30;;;4.50;;
58784;SDS011;44557;51.862;19.378;2023-01-15T00:46:00;10.30;;;4.40;;
58784;SDS011;44557;51.862;19.378;2023-01-15T00:48:02;9.10;;;4.60;;
58784;SDS011;44557;51.862;19.378;2023-01-15T00:50:04;9.60;;;4.20;;
58784;SDS011;44557;51.862;19.378;2023-01-15T00:52:08;9.60;;;4.50;;
58784;SDS011;44557;51.862;19.378;2023-01-15T00:54:10;10.80;;;4.60;;
58784;SDS011;44557;51.862;19.378;2023-01-15T00:56:12;11.90;;;4.60;;
58784;SDS011;44557;51.862;19.378;2023-01-15T00:58:14;12.20;;;4.30;;
58784;SDS011;44557;51.862;19.378;2023-01-15T01:00:15;10.30;;;4.30;;
58784;SDS011;44557;51.862;19.378;2023-01-15T01:02:17;12.60;;;4.80;;
58784;SDS011;44557;51.862;19.378;2023-01-15T01:04:19;12.30;;;5.20;;
58784;SDS011;44557;51.862;19.378;2023-01-15T01:06:21;11.80;;;4.80;;
58784;SDS011;44557;51.862;19.378;2023-01-15T01:08:22;10.50;;;4.50;;
58784;SDS011;44557;51.862;19.378;2023-01-15T01:10:24;9.60;;;4.40;;
58784;SDS011;44557;51.862;19.378;2023-01-15T01:12:27;9.80;;;3.90;;
58784;SDS011;44557;51.862;19.378;2023-01-15T01:14:28;11.80;;;4.30;;
58784;SDS011;44557;51.862;19.378;2023-01-15T01:16:34;10.30;;;4.10;;
58784;SDS011;44557;51.862;19.378;2023-01-15T01:18:38;10.70;;;4.20;;
58784;SDS011;44557;51.862;19.378;2023-01-15T01:20:39;9.40;;;4.20;;
58784;SDS011;44557;51.862;19.378;2023-01-15T01:22:41;10.00;;;4.50;;
58784;SDS011;44557;51.862;19.378;2023-01-15T01:24:43;9.30;;;4.60;;
58784;SDS011;44557;51.862;19.378;2023-01-15T01:26:45;11.40;;;4.30;;
58784;SDS011;44557;51.862;19.378;2023-01-15T01:28:49;9.00;;;4.50;;
58784;SDS011;44557;51.862;19.378;2023-01-15T01:30:52;10.20;;;4.20;;
58784;SDS011;44557;51.862;19.378;2023-01-15T01:32:53;11.50;;;5.20;;
58784;SDS011;44557;51.862;19.378;2023-01-15T01:34:56;10.40;;;4.40;;
58784;SDS011;44557;51.862;19.378;2023-01-15T01:36:57;10.00;;;4.70;;
58784;SDS011;44557;51.862;19.378;2023-01-15T01:38:59;12.00;;;5.20;;
58784;SDS011;44557;51.862;19.378;2023-01-15T01:41:02;9.60;;;3.80;;
58784;SDS011;44557;51.862;19.378;2023-01-15T01:43:04;9.40;;;4.30;;
58784;SDS011;44557;51.862;19.378;2023-01-15T01:45:08;11.60;;;4.40;;
58784;SDS011;44557;51.862;19.378;2023-01-15T01:47:20;11.00;;;4.00;;
58784;SDS011;44557;51.862;19.378;2023-01-15T01:49:25;9.20;;;4.00;;
58784;SDS011;44557;51.862;19.378;2023-01-15T01:51:28;10.10;;;4.30;;
58784;SDS011;44557;51.862;19.378;2023-01-15T01:53:35;9.30;;;4.30;;
58784;SDS011;44557;51.862;19.378;2023-01-15T01:55:36;10.90;;;4.50;;
58784;SDS011;44557;51.862;19.378;2023-01-15T01:57:38;10.00;;;4.10;;
58784;SDS011;44557;51.862;19.378;2023-01-15T01:59:41;8.30;;;4.10;;
58784;SDS011;44557;51.862;19.378;2023-01-15T02:01:43;9.40;;;4.40;;
58784;SDS011;44557;51.862;19.378;2023-01-15T02:03:46;9.80;;;4.40;;
58784;SDS011;44557;51.862;19.378;2023-01-15T02:05:49;11.50;;;4.30;;
58784;SDS011;44557;51.862;19.378;2023-01-15T02:07:54;10.00;;;4.60;;
58784;SDS011;44557;51.862;19.378;2023-01-15T02:09:56;9.50;;;4.00;;
58784;SDS011;44557;51.862;19.378;2023-01-15T02:12:00;9.70;;;3.90;;
58784;SDS011;44557;51.862;19.378;2023-01-15T02:14:11;10.00;;;3.80;;
58784;SDS011;44557;51.862;19.378;2023-01-15T02:16:20;9.50;;;4.00;;
58784;SDS011;44557;51.862;19.378;2023-01-15T02:18:39;10.00;;;4.40;;
58784;SDS011;44557;51.862;19.378;2023-01-15T02:21:13;9.70;;;3.70;;
58784;SDS011;44557;51.862;19.378;2023-01-15T02:28:29;8.40;;;3.30;;
58784;SDS011;44557;51.862;19.378;2023-01-15T02:30:39;8.20;;;3.70;;
58784;SDS011;44557;51.862;19.378;2023-01-15T02:32:50;8.00;;;4.10;;
58784;SDS011;44557;51.862;19.378;2023-01-15T02:34:55;9.10;;;4.10;;
58784;SDS011;44557;51.862;19.378;2023-01-15T02:37:07;12.00;;;4.00;;
58784;SDS011;44557;51.862;19.378;2023-01-15T02:39:14;8.50;;;4.40;;
58784;SDS011;44557;51.862;19.378;2023-01-15T02:41:19;8.70;;;3.50;;
58784;SDS011;44557;51.862;19.378;2023-01-15T02:43:23;10.70;;;4.40;;
58784;SDS011;44557;51.862;19.378;2023-01-15T02:45:35;8.00;;;4.00;;
58784;SDS011;44557;51.862;19.378;2023-01-15T02:47:42;8.30;;;3.50;;
58784;SDS011;44557;51.862;19.378;2023-01-15T02:49:45;8.80;;;4.20;;
58784;SDS011;44557;51.862;19.378;2023-01-15T02:51:52;8.60;;;3.90;;
58784;SDS011;44557;51.862;19.378;2023-01-15T02:54:00;8.30;;;3.60;;
58784;SDS011;44557;51.862;19.378;2023-01-15T02:56:07;9.10;;;3.80;;
58784;SDS011;44557;51.862;19.378;2023-01-15T02:58:13;10.40;;;4.30;;
58784;SDS011;44557;51.862;19.378;2023-01-15T03:00:21;10.30;;;4.60;;
58784;SDS011;44557;51.862;19.378;2023-01-15T03:02:28;8.30;;;3.80;;
58784;SDS011;44557;51.862;19.378;2023-01-15T03:04:38;8.40;;;4.00;;
58784;SDS011;44557;51.862;19.378;2023-01-15T03:09:05;11.40;;;4.30;;
58784;SDS011;44557;51.862;19.378;2023-01-15T03:13:16;9.30;;;3.90;;
58784;SDS011;44557;51.862;19.378;2023-01-15T03:15:47;7.80;;;3.40;;
58784;SDS011;44557;51.862;19.378;2023-01-15T03:18:14;8.60;;;3.60;;
58784;SDS011;44557;51.862;19.378;2023-01-15T03:20:24;10.20;;;4.50;;
58784;SDS011;44557;51.862;19.378;2023-01-15T03:22:29;8.20;;;3.70;;
58784;SDS011;44557;51.862;19.378;2023-01-15T03:24:36;8.40;;;3.70;;
58784;SDS011;44557;51.862;19.378;2023-01-15T03:26:47;9.30;;;3.80;;
58784;SDS011;44557;51.862;19.378;2023-01-15T03:28:48;8.80;;;4.30;;
58784;SDS011;44557;51.862;19.378;2023-01-15T03:30:51;8.60;;;3.60;;
58784;SDS011;44557;51.862;19.378;2023-01-15T03:32:53;9.70;;;3.80;;
58784;SDS011;44557;51.862;19.378;2023-01-15T03:34:55;9.20;;;3.80;;
58784;SDS011;44557;51.862;19.378;2023-01-15T03:36:57;9.30;;;4.10;;
58784;SDS011;44557;51.862;19.378;2023-01-15T03:38:59;7.90;;;3.50;;
58784;SDS011;44557;51.862;19.378;2023-01-15T03:43:53;7.80;;;4.00;;
58784;SDS011;44557;51.862;19.378;2023-01-15T03:46:02;9.60;;;4.00;;
58784;SDS011;44557;51.862;19.378;2023-01-15T03:48:10;9.10;;;4.00;;
58784;SDS011;44557;51.862;19.378;2023-01-15T03:50:21;9.00;;;3.70;;
58784;SDS011;44557;51.862;19.378;2023-01-15T03:54:43;8.40;;;3.80;;
58784;SDS011;44557;51.862;19.378;2023-01-15T03:57:03;8.90;;;3.40;;
58784;SDS011;44557;51.862;19.378;2023-01-15T03:59:18;7.50;;;3.40;;
58784;SDS011;44557;51.862;19.378;2023-01-15T04:01:25;8.80;;;3.90;;
58784;SDS011;44557;51.862;19.378;2023-01-15T04:03:32;8.70;;;3.70;;
58784;SDS011;44557;51.862;19.378;2023-01-15T04:05:36;8.10;;;3.40;;
58784;SDS011;44557;51.862;19.378;2023-01-15T04:07:39;8.50;;;4.00;;
58784;SDS011;44557;51.862;19.378;2023-01-15T04:09:41;10.40;;;3.90;;
58784;SDS011;44557;51.862;19.378;2023-01-15T04:11:43;10.20;;;3.90;;
58784;SDS011;44557;51.862;19.378;2023-01-15T04:13:44;11.00;;;3.80;;
58784;SDS011;44557;51.862;19.378;2023-01-15T04:15:46;8.00;;;3.70;;
58784;SDS011;44557;51.862;19.378;2023-01-15T04:17:47;9.10;;;3.90;;
58784;SDS011;44557;51.862;19.378;2023-01-15T04:19:49;8.40;;;3.80;;
58784;SDS011;44557;51.862;19.378;2023-01-15T04:21:51;7.20;;;3.50;;
58784;SDS011;44557;51.862;19.378;2023-01-15T04:23:53;7.70;;;3.80;;
58784;SDS011;44557;51.862;19.378;2023-01-15T04:25:55;7.40;;;3.60;;
58784;SDS011;44557;51.862;19.378;2023-01-15T04:27:57;6.30;;;3.30;;
58784;SDS011;44557;51.862;19.378;2023-01-15T04:29:58;7.60;;;3.60;;
58784;SDS011;44557;51.862;19.378;2023-01-15T04:32:00;9.60;;;3.80;;
58784;SDS011;44557;51.862;19.378;2023-01-15T04:34:02;6.60;;;3.00;;
58784;SDS011;44557;51.862;19.378;2023-01-15T04:36:04;8.00;;;3.70;;
58784;SDS011;44557;51.862;19.378;2023-01-15T04:38:07;6.00;;;3.50;;
58784;SDS011;44557;51.862;19.378;2023-01-15T04:40:09;7.80;;;3.30;;
58784;SDS011;44557;51.862;19.378;2023-01-15T04:42:34;6.60;;;3.30;;
58784;SDS011;44557;51.862;19.378;2023-01-15T04:44:54;6.90;;;3.40;;
58784;SDS011;44557;51.862;19.378;2023-01-15T04:46:56;6.10;;;3.20;;
58784;SDS011;44557;51.862;19.378;2023-01-15T04:49:00;7.00;;;3.40;;
58784;SDS011;44557;51.862;19.378;2023-01-15T04:51:05;6.90;;;3.50;;
58784;SDS011;44557;51.862;19.378;2023-01-15T04:53:07;6.10;;;3.30;;
58784;SDS011;44557;51.862;19.378;2023-01-15T04:55:09;5.90;;;3.40;;
58784;SDS011;44557;51.862;19.378;2023-01-15T04:57:10;7.60;;;3.60;;
58784;SDS011;44557;51.862;19.378;2023-01-15T04:59:13;7.00;;;3.20;;
58784;SDS011;44557;51.862;19.378;2023-01-15T05:01:16;6.10;;;3.40;;
58784;SDS011;44557;51.862;19.378;2023-01-15T05:03:19;8.10;;;3.60;;
58784;SDS011;44557;51.862;19.378;2023-01-15T05:05:21;6.20;;;3.00;;
58784;SDS011;44557;51.862;19.378;2023-01-15T05:07:22;6.60;;;3.40;;
58784;SDS011;44557;51.862;19.378;2023-01-15T05:09:24;7.00;;;3.20;;
58784;SDS011;44557;51.862;19.378;2023-01-15T05:11:26;7.50;;;3.60;;
58784;SDS011;44557;51.862;19.378;2023-01-15T05:13:28;7.10;;;3.40;;
58784;SDS011;44557;51.862;19.378;2023-01-15T05:15:32;9.30;;;3.60;;
58784;SDS011;44557;51.862;19.378;2023-01-15T05:17:34;6.40;;;3.30;;
58784;SDS011;44557;51.862;19.378;2023-01-15T05:19:35;7.90;;;3.40;;
58784;SDS011;44557;51.862;19.378;2023-01-15T05:21:39;7.10;;;3.80;;
58784;SDS011;44557;51.862;19.378;2023-01-15T05:23:42;6.00;;;3.30;;
58784;SDS011;44557;51.862;19.378;2023-01-15T05:25:44;7.00;;;3.50;;
58784;SDS011;44557;51.862;19.378;2023-01-15T05:27:46;7.70;;;3.70;;
58784;SDS011;44557;51.862;19.378;2023-01-15T05:29:47;6.00;;;3.60;;
58784;SDS011;44557;51.862;19.378;2023-01-15T05:31:49;7.60;;;3.00;;
58784;SDS011;44557;51.862;19.378;2023-01-15T05:33:51;5.80;;;3.10;;
58784;SDS011;44557;51.862;19.378;2023-01-15T05:35:53;7.40;;;3.30;;
58784;SDS011;44557;51.862;19.378;2023-01-15T05:37:55;6.90;;;3.50;;
58784;SDS011;44557;51.862;19.378;2023-01-15T05:39:56;5.80;;;3.10;;
58784;SDS011;44557;51.862;19.378;2023-01-15T05:41:58;6.70;;;3.20;;
58784;SDS011;44557;51.862;19.378;2023-01-15T05:44:00;7.20;;;3.30;;
58784;SDS011;44557;51.862;19.378;2023-01-15T05:46:07;6.10;;;3.20;;
58784;SDS011;44557;51.862;19.378;2023-01-15T05:48:09;6.30;;;3.10;;
58784;SDS011;44557;51.862;19.378;2023-01-15T05:50:10;6.60;;;3.30;;
58784;SDS011;44557;51.862;19.378;2023-01-15T05:52:12;6.90;;;3.20;;
58784;SDS011;44557;51.862;19.378;2023-01-15T05:54:14;6.10;;;3.10;;
58784;SDS011;44557;51.862;19.378;2023-01-15T05:56:18;6.20;;;3.40;;
58784;SDS011;44557;51.862;19.378;2023-01-15T05:58:19;7.20;;;3.40;;
58784;SDS011;44557;51.862;19.378;2023-01-15T06:00:21;6.10;;;3.10;;
58784;SDS011;44557;51.862;19.378;2023-01-15T06:02:23;7.10;;;3.70;;
58784;SDS011;44557;51.862;19.378;2023-01-15T06:04:25;5.60;;;3.30;;
58784;SDS011;44557;51.862;19.378;2023-01-15T06:06:27;7.40;;;3.40;;
58784;SDS011;44557;51.862;19.378;2023-01-15T06:08:29;6.00;;;3.20;;
58784;SDS011;44557;51.862;19.378;2023-01-15T06:10:31;7.50;;;3.60;;
58784;SDS011;44557;51.862;19.378;2023-01-15T06:12:32;5.70;;;3.20;;
58784;SDS011;44557;51.862;19.378;2023-01-15T06:14:34;7.20;;;3.40;;
58784;SDS011;44557;51.862;19.378;2023-01-15T06:16:35;7.00;;;3.30;;
58784;SDS011;44557;51.862;19.378;2023-01-15T06:18:38;7.20;;;3.50;;
58784;SDS011;44557;51.862;19.378;2023-01-15T06:20:40;6.30;;;3.20;;
58784;SDS011;44557;51.862;19.378;2023-01-15T06:22:42;5.30;;;3.20;;
58784;SDS011;44557;51.862;19.378;2023-01-15T06:24:44;5.70;;;3.00;;
58784;SDS011;44557;51.862;19.378;2023-01-15T06:26:46;6.90;;;3.30;;
58784;SDS011;44557;51.862;19.378;2023-01-15T06:28:47;6.60;;;3.10;;
58784;SDS011;44557;51.862;19.378;2023-01-15T06:30:49;6.40;;;3.70;;
58784;SDS011;44557;51.862;19.378;2023-01-15T06:32:51;6.30;;;3.40;;
58784;SDS011;44557;51.862;19.378;2023-01-15T06:34:52;6.10;;;3.20;;
58784;SDS011;44557;51.862;19.378;2023-01-15T06:36:54;7.00;;;3.20;;
58784;SDS011;44557;51.862;19.378;2023-01-15T06:38:56;6.20;;;3.50;;
58784;SDS011;44557;51.862;19.378;2023-01-15T06:40:59;5.70;;;3.40;;
58784;SDS011;44557;51.862;19.378;2023-01-15T06:43:01;6.40;;;3.50;;
58784;SDS011;44557;51.862;19.378;2023-01-15T06:45:22;7.40;;;3.30;;
58784;SDS011;44557;51.862;19.378;2023-01-15T06:47:42;6.70;;;3.10;;
58784;SDS011;44557;51.862;19.378;2023-01-15T06:49:44;5.90;;;3.20;;
58784;SDS011;44557;51.862;19.378;2023-01-15T06:51:45;6.80;;;3.20;;
58784;SDS011;44557;51.862;19.378;2023-01-15T06:53:47;6.90;;;3.10;;
58784;SDS011;44557;51.862;19.378;2023-01-15T06:55:48;6.80;;;3.20;;
58784;SDS011;44557;51.862;19.378;2023-01-15T06:57:50;6.80;;;3.10;;
58784;SDS011;44557;51.862;19.378;2023-01-15T06:59:51;5.00;;;3.10;;
58784;SDS011;44557;51.862;19.378;2023-01-15T07:01:53;5.30;;;3.00;;
58784;SDS011;44557;51.862;19.378;2023-01-15T07:03:55;6.10;;;3.20;;
58784;SDS011;44557;51.862;19.378;2023-01-15T07:05:57;5.50;;;2.90;;
58784;SDS011;44557;51.862;19.378;2023-01-15T07:07:58;6.80;;;3.50;;
58784;SDS011;44557;51.862;19.378;2023-01-15T07:10:00;6.10;;;3.40;;
58784;SDS011;44557;51.862;19.378;2023-01-15T07:12:02;5.30;;;2.90;;
58784;SDS011;44557;51.862;19.378;2023-01-15T07:14:04;6.90;;;3.30;;
58784;SDS011;44557;51.862;19.378;2023-01-15T07:16:08;6.70;;;3.00;;
58784;SDS011;44557;51.862;19.378;2023-01-15T07:18:27;7.60;;;4.30;;
58784;SDS011;44557;51.862;19.378;2023-01-15T07:20:30;6.90;;;3.50;;
58784;SDS011;44557;51.862;19.378;2023-01-15T07:22:32;6.00;;;3.10;;
58784;SDS011;44557;51.862;19.378;2023-01-15T07:24:33;5.90;;;3.20;;
58784;SDS011;44557;51.862;19.378;2023-01-15T07:26:35;6.80;;;3.60;;
58784;SDS011;44557;51.862;19.378;2023-01-15T07:28:37;7.70;;;3.60;;
58784;SDS011;44557;51.862;19.378;2023-01-15T07:30:39;6.10;;;3.50;;
58784;SDS011;44557;51.862;19.378;2023-01-15T07:32:40;6.20;;;3.80;;
58784;SDS011;44557;51.862;19.378;2023-01-15T07:34:42;5.70;;;3.30;;
58784;SDS011;44557;51.862;19.378;2023-01-15T07:36:44;7.10;;;3.70;;
58784;SDS011;44557;51.862;19.378;2023-01-15T07:38:45;7.20;;;3.20;;
58784;SDS011;44557;51.862;19.378;2023-01-15T07:40:47;8.20;;;4.10;;
58784;SDS011;44557;51.862;19.378;2023-01-15T07:43:11;8.00;;;4.20;;
58784;SDS011;44557;51.862;19.378;2023-01-15T07:45:32;8.00;;;3.60;;
58784;SDS011;44557;51.862;19.378;2023-01-15T07:48:07;7.30;;;3.90;;
58784;SDS011;44557;51.862;19.378;2023-01-15T07:50:29;6.60;;;3.30;;
58784;SDS011;44557;51.862;19.378;2023-01-15T07:52:31;6.60;;;3.50;;
58784;SDS011;44557;51.862;19.378;2023-01-15T07:54:33;8.00;;;3.90;;
58784;SDS011;44557;51.862;19.378;2023-01-15T07:56:34;7.00;;;3.80;;
58784;SDS011;44557;51.862;19.378;2023-01-15T07:58:36;7.80;;;3.90;;
58784;SDS011;44557;51.862;19.378;2023-01-15T08:00:38;9.40;;;4.60;;
58784;SDS011;44557;51.862;19.378;2023-01-15T08:02:40;7.30;;;4.30;;
58784;SDS011;44557;51.862;19.378;2023-01-15T08:04:42;10.30;;;6.00;;
58784;SDS011;44557;51.862;19.378;2023-01-15T08:06:45;8.70;;;5.30;;
58784;SDS011;44557;51.862;19.378;2023-01-15T08:08:47;8.00;;;4.30;;
58784;SDS011;44557;51.862;19.378;2023-01-15T08:10:48;6.50;;;4.20;;
58784;SDS011;44557;51.862;19.378;2023-01-15T08:13:08;7.40;;;4.00;;
58784;SDS011;44557;51.862;19.378;2023-01-15T08:15:40;6.60;;;3.80;;
58784;SDS011;44557;51.862;19.378;2023-01-15T08:17:44;7.20;;;4.00;;
58784;SDS011;44557;51.862;19.378;2023-01-15T08:19:56;7.70;;;3.90;;
58784;SDS011;44557;51.862;19.378;2023-01-15T08:22:17;6.60;;;3.60;;
58784;SDS011;44557;51.862;19.378;2023-01-15T08:24:56;8.20;;;4.60;;
58784;SDS011;44557;51.862;19.378;2023-01-15T08:27:33;6.90;;;4.00;;
58784;SDS011;44557;51.862;19.378;2023-01-15T08:30:13;7.00;;;4.00;;
58784;SDS011;44557;51.862;19.378;2023-01-15T08:32:46;7.50;;;3.90;;
58784;SDS011;44557;51.862;19.378;2023-01-15T08:35:20;6.90;;;3.80;;
58784;SDS011;44557;51.862;19.378;2023-01-15T08:37:36;7.40;;;4.00;;
58784;SDS011;44557;51.862;19.378;2023-01-15T08:40:13;7.50;;;4.50;;
58784;SDS011;44557;51.862;19.378;2023-01-15T08:42:56;7.60;;;3.80;;
58784;SDS011;44557;51.862;19.378;2023-01-15T08:45:11;8.80;;;4.20;;
58784;SDS011;44557;51.862;19.378;2023-01-15T08:47:26;7.40;;;4.10;;
58784;SDS011;44557;51.862;19.378;2023-01-15T08:50:01;6.80;;;4.00;;
58784;SDS011;44557;51.862;19.378;2023-01-15T09:02:17;8.30;;;4.50;;
58784;SDS011;44557;51.862;19.378;2023-01-15T09:04:21;8.70;;;4.80;;
58784;SDS011;44557;51.862;19.378;2023-01-15T09:06:35;7.60;;;4.50;;
58784;SDS011;44557;51.862;19.378;2023-01-15T09:08:40;8.00;;;4.30;;
58784;SDS011;44557;51.862;19.378;2023-01-15T09:15:01;8.90;;;4.50;;
58784;SDS011;44557;51.862;19.378;2023-01-15T09:17:07;8.70;;;4.30;;
58784;SDS011;44557;51.862;19.378;2023-01-15T09:19:11;7.00;;;3.60;;
58784;SDS011;44557;51.862;19.378;2023-01-15T09:21:14;7.70;;;3.90;;
58784;SDS011;44557;51.862;19.378;2023-01-15T09:23:56;7.80;;;4.00;;
58784;SDS011;44557;51.862;19.378;2023-01-15T09:26:01;8.00;;;4.30;;
58784;SDS011;44557;51.862;19.378;2023-01-15T09:30:29;8.30;;;4.20;;
58784;SDS011;44557;51.862;19.378;2023-01-15T09:35:13;7.40;;;4.00;;
58784;SDS011;44557;51.862;19.378;2023-01-15T09:37:15;8.00;;;4.30;;
58784;SDS011;44557;51.862;19.378;2023-01-15T09:39:17;8.60;;;4.70;;
58784;SDS011;44557;51.862;19.378;2023-01-15T09:41:21;8.40;;;4.40;;
58784;SDS011;44557;51.862;19.378;2023-01-15T09:43:51;7.30;;;4.40;;
58784;SDS011;44557;51.862;19.378;2023-01-15T09:51:14;8.90;;;4.90;;
58784;SDS011;44557;51.862;19.378;2023-01-15T09:55:45;9.30;;;4.80;;
58784;SDS011;44557;51.862;19.378;2023-01-15T09:58:14;8.00;;;4.80;;
58784;SDS011;44557;51.862;19.378;2023-01-15T10:00:37;8.50;;;4.50;;
58784;SDS011;44557;51.862;19.378;2023-01-15T10:02:53;9.00;;;4.60;;
58784;SDS011;44557;51.862;19.378;2023-01-15T10:05:16;7.90;;;4.50;;
58784;SDS011;44557;51.862;19.378;2023-01-15T10:25:22;8.40;;;4.90;;
58784;SDS011;44557;51.862;19.378;2023-01-15T10:27:34;8.30;;;4.60;;
58784;SDS011;44557;51.862;19.378;2023-01-15T10:29:54;8.80;;;5.00;;
58784;SDS011;44557;51.862;19.378;2023-01-15T10:42:28;10.70;;;5.10;;
58784;SDS011;44557;51.862;19.378;2023-01-15T10:44:45;9.60;;;4.80;;
58784;SDS011;44557;51.862;19.378;2023-01-15T10:46:55;7.70;;;4.10;;
58784;SDS011;44557;51.862;19.378;2023-01-15T10:49:13;10.80;;;5.30;;
58784;SDS011;44557;51.862;19.378;2023-01-15T10:53:28;8.10;;;4.60;;
58784;SDS011;44557;51.862;19.378;2023-01-15T10:55:36;8.80;;;4.40;;
58784;SDS011;44557;51.862;19.378;2023-01-15T10:57:50;9.00;;;4.30;;
58784;SDS011;44557;51.862;19.378;2023-01-15T10:59:58;8.20;;;4.50;;
58784;SDS011;44557;51.862;19.378;2023-01-15T11:02:02;8.80;;;5.10;;
58784;SDS011;44557;51.862;19.378;2023-01-15T11:04:17;9.00;;;4.70;;
58784;SDS011;44557;51.862;19.378;2023-01-15T11:06:20;9.60;;;5.10;;
58784;SDS011;44557;51.862;19.378;2023-01-15T11:08:25;9.70;;;4.60;;
58784;SDS011;44557;51.862;19.378;2023-01-15T11:10:31;8.30;;;4.80;;
58784;SDS011;44557;51.862;19.378;2023-01-15T11:12:36;8.10;;;4.70;;
58784;SDS011;44557;51.862;19.378;2023-01-15T11:14:58;8.00;;;4.50;;
58784;SDS011;44557;51.862;19.378;2023-01-15T11:17:34;8.00;;;4.20;;
58784;SDS011;44557;51.862;19.378;2023-01-15T11:19:57;9.30;;;4.30;;
58784;SDS011;44557;51.862;19.378;2023-01-15T11:22:04;8.20;;;4.20;;
58784;SDS011;44557;51.862;19.378;2023-01-15T11:24:28;8.40;;;4.00;;
58784;SDS011;44557;51.862;19.378;2023-01-15T11:26:30;7.80;;;3.90;;
58784;SDS011;44557;51.862;19.378;2023-01-15T11:28:39;9.50;;;3.70;;
58784;SDS011;44557;51.862;19.378;2023-01-15T11:30:51;7.20;;;3.70;;
58784;SDS011;44557;51.862;19.378;2023-01-15T11:32:56;8.10;;;3.80;;
58784;SDS011;44557;51.862;19.378;2023-01-15T11:35:00;7.60;;;3.80;;
58784;SDS011;44557;51.862;19.378;2023-01-15T11:37:14;8.20;;;3.60;;
58784;SDS011;44557;51.862;19.378;2023-01-15T11:39:22;7.10;;;3.80;;
58784;SDS011;44557;51.862;19.378;2023-01-15T11:41:34;8.20;;;4.20;;
58784;SDS011;44557;51.862;19.378;2023-01-15T11:43:55;7.90;;;3.90;;
58784;SDS011;44557;51.862;19.378;2023-01-15T11:46:25;7.50;;;3.80;;
58784;SDS011;44557;51.862;19.378;2023-01-15T11:48:49;8.40;;;4.30;;
58784;SDS011;44557;51.862;19.378;2023-01-15T11:51:11;9.90;;;5.20;;
58784;SDS011;44557;51.862;19.378;2023-01-15T11:53:17;7.80;;;4.10;;
58784;SDS011;44557;51.862;19.378;2023-01-15T11:55:23;8.50;;;4.50;;
58784;SDS011;44557;51.862;19.378;2023-01-15T11:57:31;7.70;;;3.90;;
58784;SDS011;44557;51.862;19.378;2023-01-15T11:59:37;8.50;;;4.00;;
58784;SDS011;44557;51.862;19.378;2023-01-15T12:01:46;9.80;;;5.10;;
58784;SDS011;44557;51.862;19.378;2023-01-15T12:03:59;9.70;;;4.40;;
58784;SDS011;44557;51.862;19.378;2023-01-15T12:06:07;8.30;;;4.30;;
58784;SDS011;44557;51.862;19.378;2023-01-15T12:08:27;9.60;;;4.40;;
58784;SDS011;44557;51.862;19.378;2023-01-15T12:10:42;9.10;;;4.20;;
58784;SDS011;44557;51.862;19.378;2023-01-15T12:20:23;8.40;;;4.00;;
58784;SDS011;44557;51.862;19.378;2023-01-15T12:25:13;8.40;;;4.00;;
58784;SDS011;44557;51.862;19.378;2023-01-15T12:29:31;8.80;;;3.80;;
58784;SDS011;44557;51.862;19.378;2023-01-15T12:31:43;7.40;;;3.90;;
58784;SDS011;44557;51.862;19.378;2023-01-15T12:36:22;9.10;;;4.40;;
58784;SDS011;44557;51.862;19.378;2023-01-15T12:40:58;8.20;;;3.90;;
58784;SDS011;44557;51.862;19.378;2023-01-15T12:43:07;8.00;;;3.60;;
58784;SDS011;44557;51.862;19.378;2023-01-15T12:45:45;8.00;;;3.70;;
58784;SDS011;44557;51.862;19.378;2023-01-15T12:52:28;9.30;;;4.10;;
58784;SDS011;44557;51.862;19.378;2023-01-15T12:54:40;8.90;;;4.10;;
58784;SDS011;44557;51.862;19.378;2023-01-15T12:56:54;8.90;;;3.50;;
58784;SDS011;44557;51.862;19.378;2023-01-15T12:59:06;8.70;;;3.80;;
58784;SDS011;44557;51.862;19.378;2023-01-15T13:03:57;8.80;;;4.20;;
58784;SDS011;44557;51.862;19.378;2023-01-15T13:06:01;9.20;;;4.30;;
58784;SDS011;44557;51.862;19.378;2023-01-15T13:08:09;8.50;;;4.20;;
58784;SDS011;44557;51.862;19.378;2023-01-15T13:10:24;8.30;;;4.00;;
58784;SDS011;44557;51.862;19.378;2023-01-15T13:12:27;8.40;;;3.50;;
58784;SDS011;44557;51.862;19.378;2023-01-15T13:14:30;8.70;;;4.30;;
58784;SDS011;44557;51.862;19.378;2023-01-15T13:19:21;9.10;;;4.10;;
58784;SDS011;44557;51.862;19.378;2023-01-15T13:21:26;8.40;;;3.70;;
58784;SDS011;44557;51.862;19.378;2023-01-15T13:23:49;9.30;;;4.00;;
58784;SDS011;44557;51.862;19.378;2023-01-15T13:28:18;8.00;;;3.80;;
58784;SDS011;44557;51.862;19.378;2023-01-15T13:30:31;9.10;;;4.10;;
58784;SDS011;44557;51.862;19.378;2023-01-15T13:32:44;9.00;;;4.40;;
58784;SDS011;44557;51.862;19.378;2023-01-15T13:39:59;7.70;;;4.10;;
58784;SDS011;44557;51.862;19.378;2023-01-15T13:42:04;6.90;;;3.40;;
58784;SDS011;44557;51.862;19.378;2023-01-15T13:44:28;7.10;;;3.90;;
58784;SDS011;44557;51.862;19.378;2023-01-15T13:46:33;7.90;;;4.10;;
58784;SDS011;44557;51.862;19.378;2023-01-15T13:48:36;7.50;;;3.70;;
58784;SDS011;44557;51.862;19.378;2023-01-15T13:50:50;8.20;;;4.00;;
58784;SDS011;44557;51.862;19.378;2023-01-15T13:53:26;6.80;;;4.20;;
58784;SDS011;44557;51.862;19.378;2023-01-15T13:55:40;7.40;;;3.70;;
58784;SDS011;44557;51.862;19.378;2023-01-15T13:57:50;8.50;;;3.80;;
58784;SDS011;44557;51.862;19.378;2023-01-15T13:59:52;7.00;;;3.70;;
58784;SDS011;44557;51.862;19.378;2023-01-15T14:01:53;7.50;;;3.70;;
58784;SDS011;44557;51.862;19.378;2023-01-15T14:06:06;7.90;;;3.70;;
58784;SDS011;44557;51.862;19.378;2023-01-15T14:08:22;7.40;;;3.90;;
58784;SDS011;44557;51.862;19.378;2023-01-15T14:25:25;7.40;;;4.00;;
58784;SDS011;44557;51.862;19.378;2023-01-15T14:27:39;8.80;;;4.80;;
58784;SDS011;44557;51.862;19.378;2023-01-15T14:35:25;8.70;;;4.20;;
58784;SDS011;44557;51.862;19.378;2023-01-15T14:40:02;7.90;;;4.10;;
58784;SDS011;44557;51.862;19.378;2023-01-15T14:42:13;9.50;;;4.50;;
58784;SDS011;44557;51.862;19.378;2023-01-15T14:44:43;8.10;;;4.10;;
58784;SDS011;44557;51.862;19.378;2023-01-15T14:46:46;8.10;;;4.60;;
58784;SDS011;44557;51.862;19.378;2023-01-15T14:49:00;9.10;;;4.10;;